Terminal Aerodrome Forecast
Issued by NWS Sioux Falls, SD

Home | Current Version | Previous Version | Text Only | Print | Product List | Glossary On
Versions: 1 2 3 4 5 6 7 8 9 10 11 12 13 14 15 16 17 18
030
FTUS43 KFSD 241140
TAFFSD
TAF
KFSD 241140Z 2412/2512 VRB03KT P6SM SCT250
     FM241500 15007KT P6SM BKN250
     FM241900 15011KT P6SM SCT250
     FM250700 16011KT P6SM SCT250 WS020/19040KT=

USA.gov is the U.S. government's official web portal to all federal, state and local government web resources and services.